Time;durP1;ratioP1;P1;durP2;ratioP2;P2;SDS_P1;SDS_P2;PMS_P1;PMS_P2;Temp;Humidity;BMP_temperature;BMP_pressure;BME280_temperature;BME280_humidity;BME280_pressure;Samples;Min_cycle;Max_cycle;Signal;HPM_P1;HPM_P2
2022/08/30 00:01:04;;;;;;;13.05;5.20;;;;;;;;;;5087640;28;20072;-76
2022/08/30 00:03:39;;;;;;;10.23;4.97;;;;;;;;;;5069351;28;20079;-77
2022/08/30 00:06:07;;;;;;;17.50;5.60;;;;;;;;;;5087939;28;20520;-77
2022/08/30 00:08:33;;;;;;;11.57;6.25;;;;;;;;;;5069162;28;20392;-77
2022/08/30 00:11:01;;;;;;;10.88;5.88;;;;;;;;;;5082234;28;20124;-75
2022/08/30 00:13:28;;;;;;;10.75;5.22;;;;;;;;;;5067929;28;20037;-77
2022/08/30 00:15:55;;;;;;;11.00;5.63;;;;;;;;;;5067907;28;20671;-77
2022/08/30 00:18:21;;;;;;;12.27;5.60;;;;;;;;;;5066566;28;20739;-77
2022/08/30 00:20:50;;;;;;;11.68;5.30;;;;;;;;;;5066966;28;20626;-77
2022/08/30 00:23:17;;;;;;;14.95;5.72;;;;;;;;;;5066486;28;20127;-78
2022/08/30 00:25:44;;;;;;;11.25;5.88;;;;;;;;;;5067055;28;20070;-76
2022/08/30 00:28:11;;;;;;;11.65;5.85;;;;;;;;;;5066335;28;20040;-78
2022/08/30 00:30:38;;;;;;;18.27;6.10;;;;;;;;;;5067569;28;20123;-77
2022/08/30 00:33:04;;;;;;;10.90;5.60;;;;;;;;;;5065835;28;20101;-76
2022/08/30 00:35:31;;;;;;;11.63;5.57;;;;;;;;;;5067046;28;20080;-77
2022/08/30 00:37:57;;;;;;;11.80;5.53;;;;;;;;;;5068390;28;20140;-77
2022/08/30 00:40:24;;;;;;;10.40;5.63;;;;;;;;;;5070912;28;20143;-77
2022/08/30 00:42:54;;;;;;;12.95;5.65;;;;;;;;;;5070909;28;20139;-77
2022/08/30 00:45:27;;;;;;;13.35;5.85;;;;;;;;;;5071735;28;20059;-77
2022/08/30 00:47:54;;;;;;;11.77;5.80;;;;;;;;;;5069240;28;20139;-76
2022/08/30 00:50:26;;;;;;;12.63;6.22;;;;;;;;;;5069285;28;20079;-77
2022/08/30 00:52:54;;;;;;;15.32;5.97;;;;;;;;;;5070100;28;20045;-78
2022/08/30 00:55:21;;;;;;;15.15;6.70;;;;;;;;;;5077086;28;20147;-76
2022/08/30 00:57:50;;;;;;;13.82;6.40;;;;;;;;;;5076427;28;20052;-77
2022/08/30 01:00:16;;;;;;;12.30;6.53;;;;;;;;;;5071479;28;20158;-77
2022/08/30 01:02:43;;;;;;;11.60;6.05;;;;;;;;;;5069722;28;20472;-78
2022/08/30 01:05:12;;;;;;;12.25;5.80;;;;;;;;;;5071276;28;20078;-77
2022/08/30 01:07:41;;;;;;;12.98;5.80;;;;;;;;;;5074694;28;20051;-77
2022/08/30 01:10:10;;;;;;;14.38;5.47;;;;;;;;;;5072377;28;20084;-77
2022/08/30 01:12:37;;;;;;;15.30;6.15;;;;;;;;;;5087675;28;20072;-78
2022/08/30 01:15:04;;;;;;;13.35;6.05;;;;;;;;;;5091338;28;20082;-77
2022/08/30 01:17:31;;;;;;;11.27;5.72;;;;;;;;;;5087026;28;20464;-77
2022/08/30 01:20:00;;;;;;;16.65;6.20;;;;;;;;;;5089048;28;20130;-77
2022/08/30 01:22:33;;;;;;;11.90;5.90;;;;;;;;;;5071978;28;20122;-76
2022/08/30 01:25:01;;;;;;;11.50;6.47;;;;;;;;;;5091549;28;20132;-77
2022/08/30 01:27:28;;;;;;;14.32;6.80;;;;;;;;;;5072944;28;20457;-77
2022/08/30 01:29:56;;;;;;;10.30;6.03;;;;;;;;;;5091068;28;20492;-77
2022/08/30 01:32:23;;;;;;;13.55;6.20;;;;;;;;;;5089788;28;20071;-77
2022/08/30 01:34:55;;;;;;;13.52;6.60;;;;;;;;;;5089261;28;20075;-77
2022/08/30 01:37:25;;;;;;;10.90;5.57;;;;;;;;;;5090940;28;20114;-77
2022/08/30 01:39:52;;;;;;;17.05;5.80;;;;;;;;;;5089794;28;20135;-77
2022/08/30 01:42:19;;;;;;;10.90;6.07;;;;;;;;;;5079654;28;20056;-77
2022/08/30 01:44:45;;;;;;;12.43;6.20;;;;;;;;;;5073012;28;20044;-76
2022/08/30 01:47:12;;;;;;;13.75;6.53;;;;;;;;;;5052416;28;20402;-77
2022/08/30 01:49:39;;;;;;;14.18;6.32;;;;;;;;;;5057407;28;20044;-77
2022/08/30 01:52:06;;;;;;;10.63;5.72;;;;;;;;;;5062079;28;20044;-77
2022/08/30 01:54:35;;;;;;;10.75;5.85;;;;;;;;;;5066452;28;20044;-77
2022/08/30 01:57:04;;;;;;;12.68;5.82;;;;;;;;;;5082510;28;20056;-77
2022/08/30 01:59:31;;;;;;;10.00;6.13;;;;;;;;;;5098432;28;20072;-76
2022/08/30 02:01:57;;;;;;;14.57;5.43;;;;;;;;;;5098928;28;20114;-76
2022/08/30 02:04:25;;;;;;;10.50;5.97;;;;;;;;;;5087832;28;20305;-77
2022/08/30 02:06:52;;;;;;;18.92;6.80;;;;;;;;;;5089968;28;20172;-77
2022/08/30 02:09:19;;;;;;;9.90;5.85;;;;;;;;;;5089488;28;20406;-77
2022/08/30 02:11:47;;;;;;;15.30;6.43;;;;;;;;;;5080209;28;20067;-77
2022/08/30 02:14:13;;;;;;;11.52;5.55;;;;;;;;;;5089927;28;20052;-77
2022/08/30 02:16:40;;;;;;;10.93;6.00;;;;;;;;;;5072064;28;20056;-77
2022/08/30 02:19:07;;;;;;;14.50;5.93;;;;;;;;;;5088839;28;20341;-77
2022/08/30 02:21:34;;;;;;;10.95;5.60;;;;;;;;;;5088508;28;20066;-77
2022/08/30 02:24:00;;;;;;;12.68;6.20;;;;;;;;;;5087886;28;20044;-77
2022/08/30 02:26:26;;;;;;;14.20;6.88;;;;;;;;;;5088664;28;20395;-77
2022/08/30 02:28:54;;;;;;;10.77;6.32;;;;;;;;;;5088706;28;20484;-77
2022/08/30 02:31:24;;;;;;;15.15;7.07;;;;;;;;;;5090460;28;20047;-77
2022/08/30 02:33:51;;;;;;;11.63;6.63;;;;;;;;;;5088118;28;20139;-78
2022/08/30 02:36:19;;;;;;;13.60;6.43;;;;;;;;;;5090049;28;20090;-77
2022/08/30 02:38:46;;;;;;;15.48;6.45;;;;;;;;;;5087818;28;20052;-77
2022/08/30 02:41:13;;;;;;;13.95;6.20;;;;;;;;;;5087976;28;20053;-77
2022/08/30 02:43:40;;;;;;;12.68;5.97;;;;;;;;;;5088648;28;20391;-78
2022/08/30 02:46:06;;;;;;;10.60;5.20;;;;;;;;;;5090718;28;20569;-77
2022/08/30 02:48:33;;;;;;;10.70;5.72;;;;;;;;;;5086701;28;20083;-77
2022/08/30 02:51:07;;;;;;;14.30;5.90;;;;;;;;;;5087121;28;20458;-77
2022/08/30 02:53:37;;;;;;;13.40;6.40;;;;;;;;;;5087442;28;20068;-76
2022/08/30 02:56:04;;;;;;;15.20;6.95;;;;;;;;;;5070680;28;20101;-77
2022/08/30 02:58:30;;;;;;;12.73;6.80;;;;;;;;;;5069172;28;20060;-76
2022/08/30 03:01:00;;;;;;;17.08;6.30;;;;;;;;;;5050847;28;20048;-77
2022/08/30 03:03:27;;;;;;;17.95;6.63;;;;;;;;;;5050735;28;20052;-77
2022/08/30 03:05:53;;;;;;;15.25;7.85;;;;;;;;;;5069822;28;20169;-77
2022/08/30 03:08:20;;;;;;;13.15;7.65;;;;;;;;;;5057602;28;20566;-77
2022/08/30 03:10:47;;;;;;;13.77;7.00;;;;;;;;;;5073523;28;20052;-77
2022/08/30 03:13:14;;;;;;;14.32;7.30;;;;;;;;;;5088733;28;20048;-77
2022/08/30 03:15:41;;;;;;;14.35;7.50;;;;;;;;;;5090425;28;20488;-77
2022/08/30 03:18:09;;;;;;;20.02;8.10;;;;;;;;;;5086749;28;20055;-77
2022/08/30 03:20:36;;;;;;;12.88;6.95;;;;;;;;;;5087193;28;20051;-77
2022/08/30 03:23:03;;;;;;;14.52;7.10;;;;;;;;;;5087767;28;20060;-77
2022/08/30 03:25:30;;;;;;;13.07;7.40;;;;;;;;;;5089344;28;20059;-77
2022/08/30 03:27:56;;;;;;;14.10;6.47;;;;;;;;;;5088257;28;20055;-77
2022/08/30 03:30:23;;;;;;;10.38;6.68;;;;;;;;;;5090292;28;20130;-77
2022/08/30 03:32:50;;;;;;;10.15;6.03;;;;;;;;;;5053260;28;20172;-77
2022/08/30 03:35:17;;;;;;;10.40;6.07;;;;;;;;;;5089666;28;20113;-77
2022/08/30 03:37:44;;;;;;;11.18;6.57;;;;;;;;;;5089679;28;20488;-77
2022/08/30 03:40:11;;;;;;;12.10;6.68;;;;;;;;;;5071448;28;20109;-76
2022/08/30 03:42:40;;;;;;;10.38;6.63;;;;;;;;;;5088423;28;20048;-77
2022/08/30 03:45:09;;;;;;;11.98;5.57;;;;;;;;;;5088673;28;20067;-77
2022/08/30 03:47:35;;;;;;;10.27;5.97;;;;;;;;;;5087050;28;20047;-76
2022/08/30 03:50:03;;;;;;;14.82;6.68;;;;;;;;;;5086650;28;20052;-76
2022/08/30 03:52:31;;;;;;;13.63;7.07;;;;;;;;;;5088069;28;20109;-76
2022/08/30 03:54:59;;;;;;;11.18;6.13;;;;;;;;;;5087618;28;20530;-76
2022/08/30 03:57:26;;;;;;;14.38;6.65;;;;;;;;;;5080154;28;20087;-76
2022/08/30 03:59:53;;;;;;;12.13;6.63;;;;;;;;;;5089941;28;20083;-77
2022/08/30 04:02:19;;;;;;;13.95;6.55;;;;;;;;;;5087832;28;20106;-76
2022/08/30 04:04:46;;;;;;;15.77;6.20;;;;;;;;;;5088974;28;20051;-76
2022/08/30 04:07:12;;;;;;;11.05;6.32;;;;;;;;;;5073857;28;20074;-77
2022/08/30 04:09:40;;;;;;;13.98;6.82;;;;;;;;;;5072512;28;20052;-76
2022/08/30 04:12:07;;;;;;;14.43;5.97;;;;;;;;;;5064231;28;20064;-76
2022/08/30 04:14:33;;;;;;;11.30;5.93;;;;;;;;;;5059394;28;20559;-76
2022/08/30 04:17:00;;;;;;;14.25;6.60;;;;;;;;;;5077138;28;20052;-77
2022/08/30 04:19:26;;;;;;;15.82;6.70;;;;;;;;;;5076835;28;20056;-77
2022/08/30 04:21:53;;;;;;;12.13;6.60;;;;;;;;;;5057339;28;20056;-77
2022/08/30 04:24:19;;;;;;;12.43;6.15;;;;;;;;;;5077259;28;20056;-77
2022/08/30 04:26:46;;;;;;;11.05;6.25;;;;;;;;;;5059072;28;20048;-76
2022/08/30 04:29:15;;;;;;;11.95;5.90;;;;;;;;;;5056652;28;20057;-77
2022/08/30 04:31:42;;;;;;;12.80;5.80;;;;;;;;;;5066788;28;20338;-76
2022/08/30 04:34:12;;;;;;;10.70;5.80;;;;;;;;;;5077720;28;20070;-78
2022/08/30 04:36:38;;;;;;;12.88;5.88;;;;;;;;;;5058062;28;20072;-79
2022/08/30 04:39:05;;;;;;;15.95;6.40;;;;;;;;;;5091351;28;20060;-80
2022/08/30 04:41:32;;;;;;;12.38;6.30;;;;;;;;;;5092645;28;20128;-77
2022/08/30 04:44:01;;;;;;;14.23;6.57;;;;;;;;;;5075967;28;20071;-78
2022/08/30 04:46:29;;;;;;;11.30;5.80;;;;;;;;;;5078315;28;20101;-79
2022/08/30 04:48:55;;;;;;;10.23;5.72;;;;;;;;;;5078952;28;20051;-79
2022/08/30 04:51:22;;;;;;;10.95;6.13;;;;;;;;;;5096972;28;20056;-78
2022/08/30 04:53:48;;;;;;;13.07;6.18;;;;;;;;;;5076419;28;20082;-78
2022/08/30 04:56:21;;;;;;;14.85;6.63;;;;;;;;;;5073270;28;20110;-78
2022/08/30 04:58:48;;;;;;;16.55;6.60;;;;;;;;;;5079114;28;20569;-79
2022/08/30 05:01:19;;;;;;;13.23;6.88;;;;;;;;;;5094118;28;20044;-79
2022/08/30 05:03:49;;;;;;;16.27;6.65;;;;;;;;;;5077157;28;20062;-78
2022/08/30 05:06:16;;;;;;;12.52;5.85;;;;;;;;;;5078614;28;20067;-79
2022/08/30 05:08:43;;;;;;;12.55;6.18;;;;;;;;;;5076730;28;20105;-78
2022/08/30 05:11:12;;;;;;;13.60;6.40;;;;;;;;;;5071288;28;20060;-77
2022/08/30 05:13:38;;;;;;;17.77;6.88;;;;;;;;;;5057283;28;20052;-78
2022/08/30 05:16:06;;;;;;;16.25;6.53;;;;;;;;;;5056963;28;20048;-78
2022/08/30 05:18:34;;;;;;;11.45;6.55;;;;;;;;;;5074960;28;20071;-78
2022/08/30 05:21:08;;;;;;;12.50;6.35;;;;;;;;;;5057740;28;20053;-78
2022/08/30 05:23:35;;;;;;;12.18;6.13;;;;;;;;;;5056997;28;20052;-78
2022/08/30 05:26:06;;;;;;;12.40;5.85;;;;;;;;;;5055110;28;20056;-79
2022/08/30 05:28:33;;;;;;;14.25;6.90;;;;;;;;;;5062170;28;20060;-79
2022/08/30 05:31:00;;;;;;;11.57;6.65;;;;;;;;;;5077482;28;20324;-77
2022/08/30 05:33:27;;;;;;;15.98;7.53;;;;;;;;;;5079117;28;20059;-78
2022/08/30 05:35:53;;;;;;;17.83;7.28;;;;;;;;;;5068007;28;20079;-79
2022/08/30 05:38:20;;;;;;;13.23;6.95;;;;;;;;;;5084690;28;20049;-78
2022/08/30 05:40:48;;;;;;;15.77;6.72;;;;;;;;;;5068467;28;20113;-78
2022/08/30 05:43:15;;;;;;;16.58;6.68;;;;;;;;;;5061157;28;20048;-78
2022/08/30 05:45:41;;;;;;;13.93;6.47;;;;;;;;;;5074086;28;20052;-77
2022/08/30 05:48:08;;;;;;;11.05;6.47;;;;;;;;;;5073308;28;20052;-78
2022/08/30 05:50:38;;;;;;;11.80;5.57;;;;;;;;;;5085895;28;20049;-78
2022/08/30 05:53:05;;;;;;;17.42;6.25;;;;;;;;;;5091011;28;20052;-79
2022/08/30 05:55:31;;;;;;;12.48;6.65;;;;;;;;;;5089627;28;20040;-77
2022/08/30 05:57:59;;;;;;;11.80;5.68;;;;;;;;;;5111262;28;20048;-78
2022/08/30 06:00:29;;;;;;;12.02;5.55;;;;;;;;;;5090780;28;20113;-78
2022/08/30 06:02:55;;;;;;;18.88;7.40;;;;;;;;;;5096626;28;20052;-78
2022/08/30 06:05:22;;;;;;;13.75;6.43;;;;;;;;;;5076845;28;20048;-78
2022/08/30 06:07:48;;;;;;;13.65;6.00;;;;;;;;;;5077654;28;20467;-78
2022/08/30 06:10:15;;;;;;;14.15;5.68;;;;;;;;;;5078525;28;20447;-79
2022/08/30 06:12:42;;;;;;;15.80;6.25;;;;;;;;;;5075090;28;20044;-76
2022/08/30 06:15:09;;;;;;;12.98;6.82;;;;;;;;;;5058489;28;20052;-78
2022/08/30 06:17:38;;;;;;;15.40;6.90;;;;;;;;;;5057750;28;20102;-79
2022/08/30 06:20:05;;;;;;;9.30;5.30;;;;;;;;;;5078812;28;20061;-78
2022/08/30 06:22:31;;;;;;;12.25;5.30;;;;;;;;;;5057260;28;20078;-78
2022/08/30 06:24:58;;;;;;;10.93;5.50;;;;;;;;;;5061562;28;20098;-79
2022/08/30 06:27:24;;;;;;;13.45;5.72;;;;;;;;;;5074629;28;20056;-78
2022/08/30 06:29:51;;;;;;;10.15;5.72;;;;;;;;;;5064568;28;20048;-79
2022/08/30 06:32:18;;;;;;;10.30;5.75;;;;;;;;;;5058740;28;20056;-78
2022/08/30 06:34:44;;;;;;;11.82;5.25;;;;;;;;;;5057977;28;20064;-78
2022/08/30 06:37:10;;;;;;;15.57;6.00;;;;;;;;;;5076116;28;20056;-79
2022/08/30 06:39:56;;;;;;;12.60;5.13;;;;;;;;;;5076741;28;20068;-78
2022/08/30 06:42:30;;;;;;;10.77;5.32;;;;;;;;;;5076263;28;20071;-79
2022/08/30 06:44:58;;;;;;;13.68;4.90;;;;;;;;;;5059099;28;20060;-79
2022/08/30 06:47:25;;;;;;;12.30;4.80;;;;;;;;;;5059044;28;20402;-79
2022/08/30 06:49:51;;;;;;;18.70;5.93;;;;;;;;;;5074446;28;20048;-79
2022/08/30 06:52:18;;;;;;;17.42;5.22;;;;;;;;;;5075970;28;20074;-78
2022/08/30 06:54:44;;;;;;;12.20;4.85;;;;;;;;;;5067564;28;20055;-79
2022/08/30 06:57:11;;;;;;;9.95;4.93;;;;;;;;;;5085897;28;20552;-79
2022/08/30 06:59:38;;;;;;;10.35;5.13;;;;;;;;;;5096010;28;20110;-78
2022/08/30 07:02:05;;;;;;;10.45;4.75;;;;;;;;;;5095328;28;20055;-79
2022/08/30 07:04:32;;;;;;;13.13;4.40;;;;;;;;;;5093287;28;20055;-79
2022/08/30 07:06:58;;;;;;;15.80;4.85;;;;;;;;;;5094913;28;20051;-78
2022/08/30 07:09:25;;;;;;;11.82;4.57;;;;;;;;;;5094815;28;20052;-78
2022/08/30 07:11:52;;;;;;;9.93;4.85;;;;;;;;;;5086135;28;20052;-79
2022/08/30 07:14:20;;;;;;;12.27;4.78;;;;;;;;;;5094899;28;20056;-79
2022/08/30 07:16:46;;;;;;;8.60;5.05;;;;;;;;;;5096980;28;20060;-78
2022/08/30 07:19:17;;;;;;;10.05;4.85;;;;;;;;;;5095871;28;20064;-79
2022/08/30 07:21:47;;;;;;;8.70;4.85;;;;;;;;;;5095052;28;20052;-78
2022/08/30 07:24:15;;;;;;;12.93;4.95;;;;;;;;;;5094270;28;20058;-78
2022/08/30 07:26:42;;;;;;;10.73;5.13;;;;;;;;;;5092427;28;20109;-78
2022/08/30 07:29:11;;;;;;;12.15;5.00;;;;;;;;;;5093319;28;20063;-78
2022/08/30 07:31:38;;;;;;;8.75;4.63;;;;;;;;;;5091974;28;20059;-78
2022/08/30 07:34:05;;;;;;;8.05;4.05;;;;;;;;;;5094102;28;20292;-78
2022/08/30 07:36:32;;;;;;;9.60;4.53;;;;;;;;;;5096046;28;20052;-79
2022/08/30 07:39:03;;;;;;;10.93;4.90;;;;;;;;;;5095595;28;20051;-79
2022/08/30 07:41:30;;;;;;;11.57;4.28;;;;;;;;;;5095020;28;20114;-78
2022/08/30 07:43:57;;;;;;;11.68;4.28;;;;;;;;;;5096831;28;20109;-79
2022/08/30 07:46:24;;;;;;;9.10;4.43;;;;;;;;;;5096905;28;20109;-79
2022/08/30 07:48:53;;;;;;;8.02;4.10;;;;;;;;;;5098516;28;20052;-79
2022/08/30 07:51:21;;;;;;;11.98;4.20;;;;;;;;;;5095119;28;20126;-77
2022/08/30 07:53:47;;;;;;;12.65;4.82;;;;;;;;;;5099315;28;20048;-77
2022/08/30 07:56:14;;;;;;;9.43;4.05;;;;;;;;;;5082033;28;20049;-79
2022/08/30 07:58:40;;;;;;;9.50;3.88;;;;;;;;;;5064566;28;20497;-78
2022/08/30 08:01:08;;;;;;;8.25;4.38;;;;;;;;;;5063521;28;20060;-78
2022/08/30 08:03:35;;;;;;;7.68;3.90;;;;;;;;;;5063390;28;20203;-79
2022/08/30 08:06:03;;;;;;;11.95;4.75;;;;;;;;;;5067015;28;20052;-79
2022/08/30 08:08:29;;;;;;;10.60;4.05;;;;;;;;;;5085652;28;20059;-79
2022/08/30 08:10:56;;;;;;;7.90;4.40;;;;;;;;;;5087044;28;20078;-79
2022/08/30 08:13:22;;;;;;;9.02;4.18;;;;;;;;;;5099294;28;20055;-79
2022/08/30 08:15:53;;;;;;;8.20;3.60;;;;;;;;;;5102174;28;20496;-79
2022/08/30 08:18:20;;;;;;;6.90;3.70;;;;;;;;;;5098661;28;20052;-78
2022/08/30 08:20:46;;;;;;;7.10;3.67;;;;;;;;;;5098957;28;20044;-78
2022/08/30 08:23:14;;;;;;;6.43;3.60;;;;;;;;;;5100494;28;20048;-79
2022/08/30 08:25:40;;;;;;;5.30;3.10;;;;;;;;;;5098984;28;20060;-79
2022/08/30 08:28:07;;;;;;;3.85;2.63;;;;;;;;;;5100859;28;20048;-78
2022/08/30 08:30:34;;;;;;;7.43;3.00;;;;;;;;;;5100763;28;20436;-78
2022/08/30 08:33:02;;;;;;;5.07;2.50;;;;;;;;;;5099213;28;20052;-79
2022/08/30 08:35:29;;;;;;;10.80;3.13;;;;;;;;;;5101524;28;20462;-79
2022/08/30 08:37:55;;;;;;;6.50;3.00;;;;;;;;;;5101518;28;20086;-79
2022/08/30 08:40:22;;;;;;;8.73;3.40;;;;;;;;;;5115781;28;20101;-79
2022/08/30 08:43:04;;;;;;;5.28;2.80;;;;;;;;;;5106683;28;20055;-77
2022/08/30 08:45:30;;;;;;;7.25;2.40;;;;;;;;;;5095287;28;20056;-77
2022/08/30 08:48:06;;;;;;;5.40;2.70;;;;;;;;;;5082021;28;20462;-78
2022/08/30 08:50:33;;;;;;;4.93;2.80;;;;;;;;;;5096675;28;20131;-77
2022/08/30 08:56:13;;;;;;;5.28;2.20;;;;;;;;;;5083940;28;20057;-78
2022/08/30 08:58:40;;;;;;;6.18;2.45;;;;;;;;;;5074916;28;20052;-78
2022/08/30 09:01:07;;;;;;;4.80;2.30;;;;;;;;;;5091155;28;20048;-78
2022/08/30 09:03:34;;;;;;;4.38;2.28;;;;;;;;;;5072496;28;20556;-78
2022/08/30 09:06:02;;;;;;;3.35;1.90;;;;;;;;;;5091468;28;20051;-78
2022/08/30 09:08:30;;;;;;;4.07;2.03;;;;;;;;;;5073723;28;20052;-77
2022/08/30 09:11:04;;;;;;;7.18;1.80;;;;;;;;;;5069940;28;20053;-78
2022/08/30 09:13:30;;;;;;;4.07;2.08;;;;;;;;;;5053475;28;20055;-78
2022/08/30 09:15:57;;;;;;;8.48;2.13;;;;;;;;;;5073049;28;20056;-78
2022/08/30 09:18:45;;;;;;;5.20;2.20;;;;;;;;;;5052949;28;20448;-78
2022/08/30 09:21:22;;;;;;;2.80;1.90;;;;;;;;;;5054652;28;20131;-78
2022/08/30 09:23:53;;;;;;;6.65;2.30;;;;;;;;;;5056774;28;20278;-78
2022/08/30 09:26:30;;;;;;;4.32;2.28;;;;;;;;;;5054439;28;20068;-78
2022/08/30 09:28:58;;;;;;;5.68;2.40;;;;;;;;;;5072426;28;20404;-78
2022/08/30 09:31:29;;;;;;;7.40;2.35;;;;;;;;;;5057367;28;20402;-78
2022/08/30 09:34:05;;;;;;;4.10;2.78;;;;;;;;;;5053970;28;20155;-78
2022/08/30 09:36:32;;;;;;;3.08;2.28;;;;;;;;;;5076272;28;20306;-78
2022/08/30 09:38:59;;;;;;;6.03;2.78;;;;;;;;;;5071469;28;20213;-79
2022/08/30 09:41:38;;;;;;;6.88;2.58;;;;;;;;;;5054265;28;20109;-78
2022/08/30 09:44:07;;;;;;;5.25;2.50;;;;;;;;;;5055642;28;20086;-78
2022/08/30 09:46:41;;;;;;;3.38;2.33;;;;;;;;;;5054637;28;20110;-78
2022/08/30 09:49:28;;;;;;;5.78;2.28;;;;;;;;;;5053869;28;20509;-78
2022/08/30 09:51:54;;;;;;;;;;;;;;;;;;5073383;28;20131;-78
2022/08/30 09:54:24;;;;;;;4.85;2.50;;;;;;;;;;5059425;28;19924;-78
2022/08/30 09:57:14;;;;;;;3.78;2.25;;;;;;;;;;5080736;28;20068;-78
2022/08/30 09:59:44;;;;;;;6.45;2.60;;;;;;;;;;5072913;28;20125;-79
2022/08/30 10:02:23;;;;;;;5.68;2.38;;;;;;;;;;5074605;28;20163;-78
2022/08/30 10:04:59;;;;;;;7.78;2.40;;;;;;;;;;5073359;28;20044;-78
2022/08/30 10:07:45;;;;;;;4.93;2.00;;;;;;;;;;5072780;28;20079;-78
2022/08/30 10:10:21;;;;;;;5.28;2.05;;;;;;;;;;5072078;28;20052;-78
2022/08/30 10:13:10;;;;;;;5.53;2.28;;;;;;;;;;5092143;28;20077;-79
2022/08/30 10:15:39;;;;;;;5.03;2.25;;;;;;;;;;5049692;28;20207;-78
2022/08/30 10:18:08;;;;;;;7.35;2.20;;;;;;;;;;5095891;28;20063;-79
2022/08/30 10:20:41;;;;;;;6.38;2.22;;;;;;;;;;5075226;28;20054;-79
2022/08/30 10:23:13;;;;;;;2.75;1.88;;;;;;;;;;5097323;28;20155;-78
2022/08/30 10:25:55;;;;;;;4.63;2.10;;;;;;;;;;5096781;28;20056;-79
2022/08/30 10:28:21;;;;;;;5.53;2.17;;;;;;;;;;5096981;28;20487;-78
2022/08/30 10:30:54;;;;;;;3.85;1.90;;;;;;;;;;5097199;28;20056;-78
2022/08/30 10:33:38;;;;;;;3.72;1.90;;;;;;;;;;5094165;28;20565;-79
2022/08/30 10:36:09;;;;;;;3.38;1.60;;;;;;;;;;5097196;28;20062;-78
2022/08/30 10:38:38;;;;;;;3.05;1.70;;;;;;;;;;5077469;28;20056;-79
2022/08/30 10:41:13;;;;;;;4.35;1.92;;;;;;;;;;5094399;28;20099;-78
2022/08/30 10:43:56;;;;;;;7.07;1.98;;;;;;;;;;5095687;28;20060;-78
2022/08/30 10:46:26;;;;;;;3.38;1.60;;;;;;;;;;5094775;28;20346;-78
2022/08/30 10:48:53;;;;;;;3.67;1.70;;;;;;;;;;5078225;28;20052;-78
2022/08/30 10:51:39;;;;;;;6.38;1.95;;;;;;;;;;5110389;28;20062;-78
2022/08/30 10:54:21;;;;;;;4.53;1.80;;;;;;;;;;5093614;28;20044;-80
2022/08/30 10:56:50;;;;;;;3.60;1.85;;;;;;;;;;5088936;28;20052;-79
2022/08/30 10:59:17;;;;;;;5.03;1.77;;;;;;;;;;5097994;28;20059;-78
2022/08/30 11:01:44;;;;;;;5.03;1.85;;;;;;;;;;5093523;28;20081;-80
2022/08/30 11:04:12;;;;;;;2.47;1.70;;;;;;;;;;5093799;28;20055;-79
2022/08/30 11:06:45;;;;;;;1.98;1.70;;;;;;;;;;5097181;28;20066;-79
2022/08/30 11:09:41;;;;;;;2.67;1.90;;;;;;;;;;5096256;28;20508;-78
2022/08/30 11:12:23;;;;;;;2.75;1.60;;;;;;;;;;5068547;28;20048;-78
2022/08/30 11:14:52;;;;;;;3.63;1.73;;;;;;;;;;5078467;28;20127;-78
2022/08/30 11:17:24;;;;;;;4.32;1.90;;;;;;;;;;5096932;28;20044;-79
2022/08/30 11:19:51;;;;;;;2.83;1.90;;;;;;;;;;5094146;28;20060;-79
2022/08/30 11:22:23;;;;;;;5.80;1.80;;;;;;;;;;5095890;28;20170;-78
2022/08/30 11:25:05;;;;;;;2.50;1.70;;;;;;;;;;5097621;28;20048;-78
2022/08/30 11:27:35;;;;;;;;;;;;;;;;;;5083298;28;20424;-78
2022/08/30 11:30:22;;;;;;;2.42;1.70;;;;;;;;;;5097282;28;19920;-79
2022/08/30 11:33:03;;;;;;;6.07;1.75;;;;;;;;;;5093975;28;20055;-78
2022/08/30 11:35:41;;;;;;;6.55;2.03;;;;;;;;;;5093449;28;20236;-78
2022/08/30 11:38:36;;;;;;;3.28;1.77;;;;;;;;;;5096020;28;20072;-78
2022/08/30 11:41:07;;;;;;;2.47;1.90;;;;;;;;;;5092307;28;20068;-79
2022/08/30 11:43:38;;;;;;;7.32;2.05;;;;;;;;;;5095022;28;20497;-78
2022/08/30 11:46:18;;;;;;;6.78;1.80;;;;;;;;;;5076387;28;20052;-79
2022/08/30 11:48:44;;;;;;;2.72;2.00;;;;;;;;;;5073499;28;20284;-78
2022/08/30 11:51:20;;;;;;;;;;;;;;;;;;5090482;28;20134;-79
2022/08/30 11:53:51;;;;;;;3.25;1.83;;;;;;;;;;5092695;28;19943;-78
2022/08/30 11:56:27;;;;;;;6.53;2.22;;;;;;;;;;5073098;28;20059;-79
2022/08/30 11:58:56;;;;;;;3.05;2.00;;;;;;;;;;5055800;28;20106;-79
2022/08/30 12:01:26;;;;;;;2.83;2.00;;;;;;;;;;5054417;28;20060;-78
2022/08/30 12:04:16;;;;;;;5.32;2.20;;;;;;;;;;5071319;28;20084;-78
2022/08/30 12:06:58;;;;;;;3.63;1.98;;;;;;;;;;5072728;28;20170;-78
2022/08/30 12:09:25;;;;;;;5.88;2.20;;;;;;;;;;5054387;28;20052;-78
2022/08/30 12:12:10;;;;;;;7.50;2.10;;;;;;;;;;5082146;28;20400;-78
2022/08/30 12:14:39;;;;;;;3.90;2.35;;;;;;;;;;5090918;28;20078;-79
2022/08/30 12:20:17;;;;;;;3.80;2.00;;;;;;;;;;5092749;28;20063;-77
2022/08/30 12:22:44;;;;;;;5.35;1.88;;;;;;;;;;5091103;28;20164;-78
2022/08/30 12:25:31;;;;;;;5.55;2.10;;;;;;;;;;5091899;28;20051;-78
2022/08/30 12:28:20;;;;;;;6.47;2.00;;;;;;;;;;5092635;28;20064;-79
2022/08/30 12:30:48;;;;;;;11.13;2.40;;;;;;;;;;5092824;28;20052;-79
2022/08/30 12:33:23;;;;;;;4.10;2.10;;;;;;;;;;5092752;28;20298;-79
2022/08/30 12:35:57;;;;;;;3.65;1.90;;;;;;;;;;5095385;28;20109;-77
2022/08/30 12:38:24;;;;;;;3.30;2.05;;;;;;;;;;5094142;28;20059;-79
2022/08/30 12:40:55;;;;;;;4.22;2.20;;;;;;;;;;5091519;28;20059;-78
2022/08/30 12:43:24;;;;;;;8.05;2.10;;;;;;;;;;5091483;28;20071;-78
2022/08/30 12:45:54;;;;;;;6.63;2.22;;;;;;;;;;5093723;28;20048;-78
2022/08/30 12:48:27;;;;;;;3.83;2.15;;;;;;;;;;5094785;28;20060;-77
2022/08/30 12:50:55;;;;;;;5.20;2.13;;;;;;;;;;5093023;28;20052;-78
2022/08/30 12:53:35;;;;;;;4.70;2.38;;;;;;;;;;5100612;28;20112;-78
2022/08/30 12:56:07;;;;;;;4.57;1.98;;;;;;;;;;5097529;28;20068;-78
2022/08/30 12:58:36;;;;;;;9.95;2.10;;;;;;;;;;5083383;28;20052;-79
2022/08/30 13:01:29;;;;;;;5.40;2.30;;;;;;;;;;5060231;28;20057;-78
2022/08/30 13:04:15;;;;;;;5.22;2.13;;;;;;;;;;5041984;28;20060;-79
2022/08/30 13:06:48;;;;;;;6.07;2.22;;;;;;;;;;5072761;28;20401;-77
2022/08/30 13:09:26;;;;;;;3.00;2.10;;;;;;;;;;5054561;28;20150;-77
2022/08/30 13:11:57;;;;;;;4.38;2.10;;;;;;;;;;5083414;28;20070;-77
2022/08/30 13:14:30;;;;;;;4.35;2.25;;;;;;;;;;5093296;28;20570;-79
2022/08/30 13:17:16;;;;;;;7.20;1.95;;;;;;;;;;5068028;28;20055;-78
2022/08/30 13:19:44;;;;;;;6.13;2.42;;;;;;;;;;5067864;28;20035;-79
2022/08/30 13:22:43;;;;;;;5.68;2.08;;;;;;;;;;5075182;28;20047;-78
2022/08/30 13:25:10;;;;;;;5.80;2.05;;;;;;;;;;5028911;28;20539;-77
2022/08/30 13:27:38;;;;;;;3.53;2.20;;;;;;;;;;5069704;28;20123;-78
2022/08/30 13:30:13;;;;;;;4.70;2.30;;;;;;;;;;5073793;28;20472;-78
2022/08/30 13:32:41;;;;;;;4.70;2.00;;;;;;;;;;5089418;28;20060;-80
2022/08/30 13:35:10;;;;;;;6.10;2.28;;;;;;;;;;5073523;28;20561;-79
2022/08/30 13:37:40;;;;;;;3.65;1.98;;;;;;;;;;5088783;28;20082;-78
2022/08/30 13:40:17;;;;;;;5.03;2.15;;;;;;;;;;5082732;28;20048;-78
2022/08/30 13:42:44;;;;;;;4.30;2.00;;;;;;;;;;5073984;28;20055;-78
2022/08/30 13:45:12;;;;;;;6.13;2.00;;;;;;;;;;5081163;28;20053;-77
2022/08/30 13:47:59;;;;;;;8.10;2.17;;;;;;;;;;5075650;28;20047;-78
2022/08/30 13:50:26;;;;;;;3.13;1.88;;;;;;;;;;5085295;28;20044;-78
2022/08/30 13:52:52;;;;;;;9.40;1.90;;;;;;;;;;5075091;28;20063;-77
2022/08/30 13:55:19;;;;;;;4.25;1.90;;;;;;;;;;5081221;28;20099;-77
2022/08/30 13:57:45;;;;;;;3.20;1.67;;;;;;;;;;5075892;28;20562;-78
2022/08/30 14:00:21;;;;;;;4.63;2.00;;;;;;;;;;5060249;28;20048;-77
2022/08/30 14:02:51;;;;;;;4.03;1.85;;;;;;;;;;5062712;28;20131;-79
2022/08/30 14:05:21;;;;;;;6.55;1.98;;;;;;;;;;5067122;28;20063;-79
2022/08/30 14:08:08;;;;;;;4.90;2.20;;;;;;;;;;5062737;28;20083;-78
2022/08/30 14:10:56;;;;;;;8.57;2.25;;;;;;;;;;5073135;28;20101;-78
2022/08/30 14:13:23;;;;;;;7.20;2.10;;;;;;;;;;5063629;28;20135;-77
2022/08/30 14:15:50;;;;;;;5.05;2.28;;;;;;;;;;5046837;28;20128;-78
2022/08/30 14:18:37;;;;;;;14.57;3.10;;;;;;;;;;5071741;28;20040;-78
2022/08/30 14:21:03;;;;;;;6.68;2.80;;;;;;;;;;5071620;28;20052;-76
2022/08/30 14:23:30;;;;;;;6.47;2.40;;;;;;;;;;5075061;28;20109;-76
2022/08/30 14:25:59;;;;;;;8.15;2.30;;;;;;;;;;5080676;28;20060;-77
2022/08/30 14:28:28;;;;;;;7.00;2.33;;;;;;;;;;5070699;28;20048;-77
2022/08/30 14:30:55;;;;;;;6.43;2.80;;;;;;;;;;5068074;28;20135;-78
2022/08/30 14:33:23;;;;;;;11.02;2.60;;;;;;;;;;5077163;28;20206;-78
2022/08/30 14:35:49;;;;;;;8.55;2.72;;;;;;;;;;5084227;28;20054;-78
2022/08/30 14:38:16;;;;;;;6.38;2.75;;;;;;;;;;5083403;28;20102;-78
2022/08/30 14:40:42;;;;;;;11.38;2.50;;;;;;;;;;5082325;28;20136;-78
2022/08/30 14:43:10;;;;;;;6.90;2.60;;;;;;;;;;5081075;28;20083;-79
2022/08/30 14:45:37;;;;;;;7.95;3.00;;;;;;;;;;5086530;28;20370;-79
2022/08/30 14:48:08;;;;;;;7.10;3.03;;;;;;;;;;5105041;28;20068;-78
2022/08/30 14:50:38;;;;;;;8.10;3.17;;;;;;;;;;5104876;28;20051;-77
2022/08/30 14:53:05;;;;;;;10.00;3.17;;;;;;;;;;5093504;28;20079;-78
2022/08/30 14:55:32;;;;;;;12.98;3.25;;;;;;;;;;5073566;28;20081;-78
2022/08/30 14:57:59;;;;;;;5.45;2.75;;;;;;;;;;5073963;28;20052;-79